Time;durP1;ratioP1;P1;durP2;ratioP2;P2;SDS_P1;SDS_P2;PMS_P1;PMS_P2;Temp;Humidity;BMP_temperature;BMP_pressure;BME280_temperature;BME280_humidity;BME280_pressure;Samples;Min_cycle;Max_cycle;Signal;HPM_P1;HPM_P2
2022/11/07 00:01:53;;;;;;;31.45;19.88;;;;;;;10.98;100.00;63127.47;5059876;28;20201;-74
2022/11/07 00:04:19;;;;;;;30.13;21.23;;;;;;;11.11;100.00;63143.47;5065511;28;20520;-73
2022/11/07 00:06:46;;;;;;;37.08;20.50;;;;;;;11.10;100.00;63140.41;5064622;28;20221;-74
2022/11/07 00:09:15;;;;;;;34.33;20.38;;;;;;;11.14;100.00;63146.59;5065029;28;20247;-73
2022/11/07 00:11:42;;;;;;;33.38;20.38;;;;;;;11.21;100.00;63153.84;5064399;28;20196;-73
2022/11/07 00:14:10;;;;;;;29.67;20.02;;;;;;;11.20;100.00;63150.25;5059803;28;20235;-73
2022/11/07 00:16:37;;;;;;;30.05;19.55;;;;;;;11.24;100.00;63156.94;5065460;28;20272;-74
2022/11/07 00:19:04;;;;;;;28.63;20.52;;;;;;;11.31;100.00;63166.75;5064098;28;20588;-76
2022/11/07 00:21:31;;;;;;;33.13;21.23;;;;;;;11.22;100.00;63150.28;5062075;28;20409;-74
2022/11/07 00:23:58;;;;;;;31.00;21.58;;;;;;;11.36;100.00;63171.91;5046287;28;20218;-74
2022/11/07 00:26:26;;;;;;;29.70;21.88;;;;;;;11.42;100.00;63176.09;5063988;28;20231;-73
2022/11/07 00:28:53;;;;;;;34.33;20.00;;;;;;;11.50;100.00;63181.84;5063530;28;20470;-74
2022/11/07 00:31:20;;;;;;;28.23;20.42;;;;;;;11.55;100.00;63194.66;5064171;28;20213;-75
2022/11/07 00:33:47;;;;;;;31.05;21.50;;;;;;;11.55;100.00;63189.03;5064667;28;20219;-73
2022/11/07 00:36:18;;;;;;;31.33;20.45;;;;;;;11.55;100.00;63187.03;5052165;28;20205;-74
2022/11/07 00:38:45;;;;;;;32.33;19.10;;;;;;;11.57;100.00;63188.56;5064367;28;20288;-73
2022/11/07 00:41:12;;;;;;;29.15;19.15;;;;;;;11.53;100.00;63190.03;5063734;28;20209;-74
2022/11/07 00:43:40;;;;;;;28.05;19.27;;;;;;;11.59;100.00;63193.19;5057213;28;20228;-73
2022/11/07 00:46:08;;;;;;;31.83;19.00;;;;;;;11.66;100.00;63194.84;5062965;28;20502;-74
2022/11/07 00:48:36;;;;;;;25.52;19.23;;;;;;;11.67;100.00;63198.94;5063740;28;20283;-74
2022/11/07 00:51:07;;;;;;;25.15;18.83;;;;;;;11.70;100.00;63207.16;5065971;28;20224;-75
2022/11/07 00:53:34;;;;;;;23.70;18.70;;;;;;;11.74;100.00;63208.75;5045536;28;20222;-73
2022/11/07 00:56:02;;;;;;;25.38;17.98;;;;;;;11.74;100.00;63208.22;5065440;28;20548;-74
2022/11/07 00:58:29;;;;;;;32.10;20.15;;;;;;;11.77;100.00;63209.31;5065739;28;20217;-74
2022/11/07 01:00:57;;;;;;;28.55;18.77;;;;;;;11.76;100.00;63210.81;5063321;28;20220;-74
2022/11/07 01:06:09;;;;;;;31.42;20.85;;;;;;;11.74;100.00;63205.69;5050131;28;20201;-74
2022/11/07 01:08:36;;;;;;;27.02;18.27;;;;;;;11.66;100.00;63199.94;5063488;28;20225;-74
2022/11/07 01:11:05;;;;;;;28.48;19.00;;;;;;;11.66;100.00;63203.03;5063865;28;20197;-74
2022/11/07 01:13:32;;;;;;;26.67;19.00;;;;;;;11.59;100.00;63190.66;5063187;28;20221;-74
2022/11/07 01:16:01;;;;;;;30.17;17.85;;;;;;;11.44;100.00;63178.16;5065804;28;20197;-73
2022/11/07 01:18:28;;;;;;;32.42;19.10;;;;;;;11.28;100.00;63163.63;5062632;28;20256;-74
2022/11/07 01:20:55;;;;;;;29.27;18.52;;;;;;;11.24;100.00;63156.94;5060632;28;20209;-75
2022/11/07 01:23:22;;;;;;;26.15;18.15;;;;;;;11.15;100.00;63150.69;5060901;28;20221;-75
2022/11/07 01:25:49;;;;;;;35.95;19.13;;;;;;;11.10;100.00;63142.97;5069180;28;20434;-74
2022/11/07 01:28:16;;;;;;;26.88;18.08;;;;;;;11.02;100.00;63129.59;5064078;28;20275;-75
2022/11/07 01:30:44;;;;;;;25.90;17.95;;;;;;;10.93;100.00;63125.34;5059507;28;20483;-74
2022/11/07 01:33:13;;;;;;;27.33;17.17;;;;;;;10.84;100.00;63116.03;5065714;28;20221;-73
2022/11/07 01:35:41;;;;;;;28.63;18.17;;;;;;;10.74;100.00;63107.72;5065068;28;20185;-73
2022/11/07 01:38:08;;;;;;;23.23;16.52;;;;;;;10.60;100.00;63088.13;5063682;28;20564;-74
2022/11/07 01:41:19;;;;;;;23.65;15.32;;;;;;;10.49;100.00;63077.78;5048775;28;20219;-74
2022/11/07 01:43:42;;;;;;;26.23;16.92;;;;;;;10.42;100.00;63072.56;5063961;28;20217;-74
2022/11/07 01:46:08;;;;;;;31.05;17.95;;;;;;;10.33;100.00;63058.16;5062157;28;20235;-74
2022/11/07 01:48:37;;;;;;;28.98;18.50;;;;;;;10.26;100.00;63050.91;5062179;28;20456;-72
2022/11/07 01:51:05;;;;;;;27.88;19.60;;;;;;;10.26;100.00;63059.09;5064143;28;20204;-75
2022/11/07 01:53:33;;;;;;;32.20;18.58;;;;;;;10.18;100.00;63042.66;5063150;28;20217;-74
2022/11/07 01:56:00;;;;;;;33.40;19.33;;;;;;;10.18;100.00;63043.16;5063304;28;20197;-73
2022/11/07 01:58:27;;;;;;;30.98;19.45;;;;;;;10.25;100.00;63055.50;5061537;28;20636;-75
2022/11/07 02:00:54;;;;;;;28.27;18.55;;;;;;;10.19;100.00;63048.78;5062968;28;20311;-74
2022/11/07 02:03:21;;;;;;;31.48;17.80;;;;;;;10.23;100.00;63053.41;5064341;28;20433;-74
2022/11/07 02:05:54;;;;;;;26.85;17.60;;;;;;;10.23;100.00;63055.47;5064983;28;20198;-73
2022/11/07 02:08:22;;;;;;;22.95;17.20;;;;;;;10.32;100.00;63059.66;5060435;28;20218;-72
2022/11/07 02:10:50;;;;;;;28.40;18.27;;;;;;;10.26;100.00;63051.44;5061397;28;20225;-74
2022/11/07 02:13:22;;;;;;;30.45;19.52;;;;;;;10.10;100.00;63039.44;5050237;28;20285;-73
2022/11/07 02:15:49;;;;;;;26.40;18.25;;;;;;;10.04;100.00;63036.28;5045691;28;20398;-73
2022/11/07 02:18:16;;;;;;;26.25;19.55;;;;;;;9.99;100.00;63023.47;5061870;28;20219;-74
2022/11/07 02:20:44;;;;;;;36.17;21.90;;;;;;;9.93;100.00;63024.91;5045320;28;20221;-74
2022/11/07 02:23:18;;;;;;;35.63;23.20;;;;;;;9.78;100.00;63008.88;5059632;28;20222;-73
2022/11/07 02:25:46;;;;;;;36.03;21.45;;;;;;;9.83;100.00;63008.97;5073590;28;20196;-74
2022/11/07 02:28:15;;;;;;;37.47;22.83;;;;;;;9.81;100.00;63009.44;5072180;28;20214;-75
2022/11/07 02:30:42;;;;;;;32.83;21.75;;;;;;;9.82;100.00;63008.44;5059174;28;20226;-73
2022/11/07 02:33:19;;;;;;;38.20;23.42;;;;;;;9.77;100.00;63002.75;5065105;28;20213;-73
2022/11/07 02:35:48;;;;;;;33.85;21.40;;;;;;;9.74;100.00;63002.72;5066832;28;20200;-74
2022/11/07 02:38:19;;;;;;;39.50;22.30;;;;;;;9.71;100.00;62999.09;5066062;28;20413;-73
2022/11/07 02:40:51;;;;;;;36.95;21.95;;;;;;;9.67;100.00;62992.94;5058037;28;20490;-74
2022/11/07 02:43:22;;;;;;;37.72;22.67;;;;;;;9.69;100.00;63000.09;5065729;28;20532;-72
2022/11/07 02:45:50;;;;;;;35.47;21.17;;;;;;;9.70;100.00;62995.53;5061305;28;20220;-73
2022/11/07 02:48:17;;;;;;;29.83;19.65;;;;;;;9.67;100.00;62992.94;5065897;28;20213;-75
2022/11/07 02:50:44;;;;;;;31.05;19.80;;;;;;;9.63;100.00;62990.84;5057476;28;20225;-73
2022/11/07 02:53:11;;;;;;;27.38;20.08;;;;;;;9.56;100.00;62981.03;5064697;28;20231;-75
2022/11/07 02:55:38;;;;;;;29.48;17.83;;;;;;;9.51;100.00;62976.38;5066605;28;20197;-74
2022/11/07 02:58:06;;;;;;;26.10;18.67;;;;;;;9.47;100.00;62974.28;5061209;28;20222;-73
2022/11/07 03:00:33;;;;;;;29.52;18.00;;;;;;;9.43;100.00;62967.59;5054298;28;20197;-73
2022/11/07 03:03:00;;;;;;;24.58;18.40;;;;;;;9.35;100.00;62964.94;5064585;28;20222;-75
2022/11/07 03:05:27;;;;;;;31.75;17.20;;;;;;;9.30;100.00;62957.22;5066470;28;20206;-73
2022/11/07 03:07:54;;;;;;;31.23;17.30;;;;;;;9.22;100.00;62949.47;5051669;28;20415;-74
2022/11/07 03:10:21;;;;;;;23.17;16.38;;;;;;;9.19;100.00;62941.28;5057935;28;20233;-74
2022/11/07 03:12:48;;;;;;;28.83;17.23;;;;;;;9.15;100.00;62939.16;5069032;28;20220;-74
2022/11/07 03:15:16;;;;;;;24.77;17.52;;;;;;;9.12;100.00;62936.06;5064970;28;20194;-73
2022/11/07 03:17:43;;;;;;;28.25;18.48;;;;;;;9.09;100.00;62932.97;5066218;28;20221;-74
2022/11/07 03:20:11;;;;;;;30.83;20.27;;;;;;;9.09;100.00;62933.47;5064512;28;20201;-74
2022/11/07 03:22:38;;;;;;;28.10;18.05;;;;;;;9.02;100.00;62928.81;5064246;28;20227;-73
2022/11/07 03:25:06;;;;;;;27.67;17.40;;;;;;;8.91;100.00;62917.44;5067145;28;20212;-75
2022/11/07 03:27:33;;;;;;;32.67;17.70;;;;;;;8.93;100.00;62916.94;5064135;28;20229;-73
2022/11/07 03:30:00;;;;;;;27.45;14.98;;;;;;;8.90;100.00;62911.31;5059973;28;20233;-74
2022/11/07 03:32:28;;;;;;;28.58;17.40;;;;;;;8.88;100.00;62911.78;5047801;28;20221;-75
2022/11/07 03:34:55;;;;;;;23.85;15.57;;;;;;;8.89;100.00;62917.38;5055817;28;20556;-75
2022/11/07 03:37:22;;;;;;;21.63;16.13;;;;;;;8.80;100.00;62903.50;5063799;28;20221;-74
2022/11/07 03:39:48;;;;;;;21.45;14.10;;;;;;;8.74;100.00;62899.84;5049852;28;20434;-74
2022/11/07 03:42:15;;;;;;;19.80;14.70;;;;;;;8.70;100.00;62895.72;5053590;28;20449;-75
2022/11/07 03:44:42;;;;;;;23.83;13.85;;;;;;;8.68;100.00;62893.66;5065563;28;20339;-75
2022/11/07 03:47:09;;;;;;;20.83;13.57;;;;;;;8.65;100.00;62887.50;5068105;28;20217;-73
2022/11/07 03:49:37;;;;;;;26.40;13.73;;;;;;;8.62;100.00;62884.91;5063066;28;20240;-74
2022/11/07 03:52:04;;;;;;;21.73;15.02;;;;;;;8.65;100.00;62885.47;5064704;28;20506;-74
2022/11/07 03:54:31;;;;;;;28.00;18.00;;;;;;;8.71;100.00;62898.78;5085319;28;20397;-74
2022/11/07 03:56:58;;;;;;;32.08;19.73;;;;;;;8.80;100.00;62903.50;5075704;28;20202;-74
2022/11/07 03:59:25;;;;;;;35.00;17.83;;;;;;;8.76;100.00;62903.94;5049117;28;20202;-74
2022/11/07 04:01:52;;;;;;;31.95;17.90;;;;;;;8.76;100.00;62904.47;5045004;28;20205;-74
2022/11/07 04:04:18;;;;;;;25.45;16.00;;;;;;;8.74;100.00;62896.78;5063798;28;20227;-74
2022/11/07 04:06:47;;;;;;;19.70;14.20;;;;;;;8.72;100.00;62897.78;5061082;28;20243;-73
2022/11/07 04:09:13;;;;;;;19.65;13.63;;;;;;;8.72;100.00;62892.72;5064728;28;20208;-74
2022/11/07 04:17:20;;;;;;;23.38;13.38;;;;;;;8.74;100.00;62899.84;5051023;28;20232;-73
2022/11/07 04:19:48;;;;;;;24.83;13.82;;;;;;;8.76;100.00;62901.94;5065086;28;20389;-74
2022/11/07 04:22:17;;;;;;;20.85;14.18;;;;;;;8.76;100.00;62899.38;5064653;28;20517;-75
2022/11/07 04:24:44;;;;;;;24.80;14.50;;;;;;;8.82;100.00;62905.56;5049458;28;20203;-74
2022/11/07 04:29:56;;;;;;;25.88;16.00;;;;;;;8.81;100.00;62904.56;5044005;28;20216;-74
2022/11/07 04:32:23;;;;;;;23.42;13.70;;;;;;;8.89;100.00;62912.81;5063155;28;20272;-74
2022/11/07 04:34:50;;;;;;;23.90;13.60;;;;;;;8.93;100.00;62916.44;5065168;28;20232;-75
2022/11/07 04:37:19;;;;;;;18.45;13.70;;;;;;;9.01;100.00;62924.69;5061759;28;20263;-75
2022/11/07 04:39:46;;;;;;;19.52;12.63;;;;;;;8.83;100.00;62909.16;5063729;28;20235;-74
2022/11/07 04:42:12;;;;;;;19.20;14.13;;;;;;;8.77;100.00;62899.88;5050465;28;20221;-74
2022/11/07 04:44:39;;;;;;;21.70;14.30;;;;;;;8.87;100.00;62910.75;5062698;28;20299;-74
2022/11/07 04:47:06;;;;;;;22.83;15.25;;;;;;;8.96;100.00;62917.00;5063028;28;20236;-74
2022/11/07 04:49:33;;;;;;;20.33;14.75;;;;;;;9.04;100.00;62930.34;5064508;28;22297;-73
2022/11/07 04:52:00;;;;;;;21.25;14.18;;;;;;;9.09;100.00;62935.50;5064811;28;20201;-73
2022/11/07 04:54:28;;;;;;;21.52;13.80;;;;;;;9.13;100.00;62942.69;5063324;28;20193;-73
2022/11/07 04:56:55;;;;;;;19.98;14.98;;;;;;;9.05;100.00;62931.91;5064774;28;20205;-73
2022/11/07 04:59:21;;;;;;;25.73;15.13;;;;;;;9.06;100.00;62929.88;5062175;28;20201;-73
2022/11/07 05:01:48;;;;;;;24.58;16.02;;;;;;;9.14;100.00;62938.66;5063053;28;20299;-73
2022/11/07 05:04:15;;;;;;;25.73;15.85;;;;;;;9.18;100.00;62947.88;5073792;28;20279;-75
2022/11/07 05:06:42;;;;;;;23.13;16.02;;;;;;;9.23;100.00;62952.53;5070477;28;20388;-75
2022/11/07 05:09:14;;;;;;;25.80;17.98;;;;;;;9.31;100.00;62955.72;5062588;28;20542;-74
2022/11/07 05:11:42;;;;;;;29.83;18.45;;;;;;;9.36;100.00;62960.88;5064229;28;20267;-74
2022/11/07 05:14:09;;;;;;;29.88;17.77;;;;;;;9.42;100.00;62969.09;5054785;28;20545;-74
2022/11/07 05:16:36;;;;;;;25.30;18.35;;;;;;;9.45;100.00;62972.72;5062483;28;20238;-76
2022/11/07 05:19:03;;;;;;;30.52;19.90;;;;;;;9.52;100.00;62982.00;5063681;28;20218;-75
2022/11/07 05:21:30;;;;;;;30.30;18.88;;;;;;;9.66;100.00;62994.44;5064652;28;20215;-75
2022/11/07 05:23:56;;;;;;;31.52;18.02;;;;;;;9.76;100.00;62999.19;5063296;28;20226;-76
2022/11/07 05:26:22;;;;;;;28.50;20.08;;;;;;;9.87;100.00;63011.06;5065710;28;20541;-74
2022/11/07 05:28:51;;;;;;;28.98;18.67;;;;;;;9.96;100.00;63024.94;5046201;28;20226;-75
2022/11/07 05:31:18;;;;;;;32.10;19.20;;;;;;;10.00;100.00;63029.63;5056077;28;20282;-75
2022/11/07 05:33:44;;;;;;;30.05;19.75;;;;;;;10.04;100.00;63035.78;5062533;28;20522;-73
2022/11/07 05:36:13;;;;;;;31.65;18.80;;;;;;;10.11;100.00;63035.91;5063958;28;20216;-75
2022/11/07 05:38:41;;;;;;;29.77;18.38;;;;;;;10.19;100.00;63044.19;5063221;28;20526;-74
2022/11/07 05:41:09;;;;;;;32.58;20.25;;;;;;;10.37;100.00;63067.41;5049704;28;20367;-74
2022/11/07 05:43:37;;;;;;;28.92;19.17;;;;;;;10.49;100.00;63075.22;5065798;28;20541;-76
2022/11/07 05:46:06;;;;;;;36.38;20.00;;;;;;;10.60;100.00;63088.13;5064303;28;20197;-76
2022/11/07 05:48:33;;;;;;;25.23;17.40;;;;;;;10.77;100.00;63108.78;5061363;28;20220;-74
2022/11/07 05:51:00;;;;;;;26.05;17.70;;;;;;;10.97;100.00;63129.50;5060089;28;20440;-77
2022/11/07 05:53:27;;;;;;;29.60;18.40;;;;;;;11.03;100.00;63138.25;5063384;28;20297;-75
2022/11/07 05:55:54;;;;;;;28.15;18.58;;;;;;;11.19;100.00;63149.22;5063585;28;20511;-74
2022/11/07 05:58:21;;;;;;;27.67;18.13;;;;;;;11.22;100.00;63152.31;5061893;28;20240;-75
2022/11/07 06:00:49;;;;;;;28.25;17.95;;;;;;;11.29;100.00;63157.00;5064151;28;20251;-75
2022/11/07 06:03:18;;;;;;;31.50;18.25;;;;;;;11.33;100.00;63166.25;5064756;28;20271;-75
2022/11/07 06:05:46;;;;;;;33.60;18.58;;;;;;;11.39;100.00;63173.00;5066764;28;20193;-75
2022/11/07 06:08:14;;;;;;;32.92;20.25;;;;;;;11.30;100.00;63163.16;5066196;28;20213;-75
2022/11/07 06:10:42;;;;;;;32.78;20.70;;;;;;;11.30;100.00;63166.22;5067185;28;20302;-75
2022/11/07 06:13:12;;;;;;;31.23;21.08;;;;;;;11.34;100.00;63165.25;5066910;28;20221;-76
2022/11/07 06:15:40;;;;;;;39.03;21.13;;;;;;;11.31;100.00;63159.09;5067863;28;20231;-74
2022/11/07 06:18:11;;;;;;;32.25;20.85;;;;;;;11.37;100.00;63170.91;5067207;28;20228;-75
2022/11/07 06:20:39;;;;;;;34.08;21.58;;;;;;;11.36;100.00;63169.88;5067705;28;20227;-75
2022/11/07 06:23:07;;;;;;;33.53;21.63;;;;;;;11.47;100.00;63183.84;5067006;28;20542;-75
2022/11/07 06:25:35;;;;;;;35.05;21.92;;;;;;;11.56;100.00;63192.66;5071401;28;20213;-75
2022/11/07 06:28:03;;;;;;;30.52;20.35;;;;;;;11.56;100.00;63190.09;5087501;28;20217;-74
2022/11/07 06:30:33;;;;;;;38.42;21.35;;;;;;;11.47;100.00;63183.84;5087061;28;20287;-78
2022/11/07 06:33:01;;;;;;;31.20;21.08;;;;;;;11.60;100.00;63189.66;5087044;28;20239;-75
2022/11/07 06:35:29;;;;;;;34.67;20.13;;;;;;;11.72;100.00;63209.22;5091713;28;20196;-76
2022/11/07 06:37:57;;;;;;;30.35;21.77;;;;;;;11.72;100.00;63204.13;5088810;28;20224;-74
2022/11/07 06:40:24;;;;;;;31.83;20.83;;;;;;;11.75;100.00;63206.72;5086556;28;20242;-75
2022/11/07 06:42:50;;;;;;;32.85;21.00;;;;;;;11.79;100.00;63215.97;5086134;28;20303;-75
2022/11/07 06:45:17;;;;;;;34.15;20.80;;;;;;;11.75;100.00;63207.25;5087258;28;20192;-75
2022/11/07 06:47:44;;;;;;;26.30;19.80;;;;;;;11.85;100.00;63219.63;5086551;28;20225;-74
2022/11/07 06:50:11;;;;;;;31.00;20.23;;;;;;;11.92;100.00;63224.34;5089307;28;20201;-76
2022/11/07 06:52:38;;;;;;;35.63;21.17;;;;;;;11.81;100.00;63212.94;5089360;28;20262;-76
2022/11/07 06:55:07;;;;;;;28.38;20.75;;;;;;;11.81;100.00;63213.47;5086925;28;20203;-76
2022/11/07 06:57:34;;;;;;;41.25;20.90;;;;;;;11.66;100.00;63197.41;5085876;28;20208;-75
2022/11/07 07:00:01;;;;;;;32.67;21.85;;;;;;;11.55;100.00;63183.94;5086840;28;20521;-75
2022/11/07 07:02:28;;;;;;;37.97;21.65;;;;;;;11.51;100.00;63182.34;5086059;28;20236;-75
2022/11/07 07:04:55;;;;;;;37.38;22.48;;;;;;;11.62;100.00;63191.19;5086421;28;20204;-76
2022/11/07 07:07:22;;;;;;;32.08;22.17;;;;;;;11.82;100.00;63214.47;5089178;28;20216;-76
2022/11/07 07:09:49;;;;;;;36.90;20.65;;;;;;;11.90;100.00;63222.25;5087363;28;20242;-74
2022/11/07 07:12:17;;;;;;;34.80;20.92;;;;;;;11.77;100.00;63211.34;5086225;28;20232;-75
2022/11/07 07:14:44;;;;;;;32.92;20.67;;;;;;;11.57;100.00;63191.13;5086923;28;20200;-76
2022/11/07 07:17:11;;;;;;;40.03;21.95;;;;;;;11.85;100.00;63220.16;5085793;28;20231;-76
2022/11/07 07:19:38;;;;;;;39.30;23.25;;;;;;;11.73;100.00;63204.66;5085786;28;20222;-76
2022/11/07 07:22:05;;;;;;;33.70;22.58;;;;;;;11.75;100.00;63207.25;5085874;28;20197;-75
2022/11/07 07:24:32;;;;;;;38.00;22.60;;;;;;;11.97;100.00;63232.06;5089730;28;20193;-75
2022/11/07 07:26:59;;;;;;;32.63;20.38;;;;;;;12.02;100.00;63237.78;5069736;28;20193;-74
2022/11/07 07:29:27;;;;;;;40.45;21.08;;;;;;;12.09;100.00;63244.50;5065971;28;20510;-75
2022/11/07 07:31:54;;;;;;;33.95;22.27;;;;;;;11.93;100.00;63227.91;5065507;28;20233;-75
2022/11/07 07:34:21;;;;;;;34.38;21.33;;;;;;;11.84;100.00;63219.09;5067170;28;20196;-75
2022/11/07 07:36:48;;;;;;;37.20;21.40;;;;;;;11.82;100.00;63211.94;5065827;28;20235;-76
2022/11/07 07:39:15;;;;;;;41.03;22.55;;;;;;;11.94;100.00;63228.97;5067405;28;20193;-76
2022/11/07 07:41:41;;;;;;;38.88;22.88;;;;;;;11.96;100.00;63231.53;5069886;28;20432;-75
2022/11/07 07:44:08;;;;;;;37.20;22.85;;;;;;;12.26;100.00;63262.66;5066262;28;20263;-75
2022/11/07 07:46:36;;;;;;;34.50;22.30;;;;;;;12.49;100.00;63283.91;5066011;28;20197;-75
2022/11/07 07:49:03;;;;;;;39.75;21.67;;;;;;;12.49;100.00;63283.91;5066574;28;20217;-74
2022/11/07 07:51:30;;;;;;;31.27;20.65;;;;;;;12.65;100.00;63305.09;5065143;28;20233;-76
2022/11/07 07:53:57;;;;;;;28.73;21.02;;;;;;;12.75;100.00;63313.44;5066140;28;20263;-76
2022/11/07 07:56:24;;;;;;;43.30;21.98;;;;;;;12.82;100.00;63319.66;5067145;28;20517;-76
2022/11/07 07:58:51;;;;;;;33.03;20.33;;;;;;;12.87;100.00;63322.81;5065881;28;20214;-75
2022/11/07 08:01:18;;;;;;;32.20;20.13;;;;;;;13.10;100.00;63348.75;5065343;28;20467;-76
2022/11/07 08:03:46;;;;;;;38.00;22.63;;;;;;;12.92;100.00;63330.03;5066176;28;20464;-75
2022/11/07 08:06:13;;;;;;;35.38;21.33;;;;;;;12.97;100.00;63335.22;5064892;28;20471;-76
2022/11/07 08:08:40;;;;;;;32.05;21.50;;;;;;;13.17;100.00;63355.97;5065777;28;20218;-76
2022/11/07 08:11:09;;;;;;;38.38;22.27;;;;;;;13.35;100.00;63375.19;5068171;28;20284;-75
2022/11/07 08:13:36;;;;;;;36.40;20.58;;;;;;;13.48;100.00;63390.69;5065706;28;20244;-75
2022/11/07 08:16:06;;;;;;;35.95;20.95;;;;;;;13.50;100.00;63387.66;5065299;28;20243;-76
2022/11/07 08:18:35;;;;;;;41.33;22.92;;;;;;;13.82;100.00;63423.94;5065184;28;20217;-77
2022/11/07 08:21:03;;;;;;;37.70;21.83;;;;;;;14.19;100.00;63461.31;5065068;28;20208;-76
2022/11/07 08:23:30;;;;;;;31.08;21.10;;;;;;;14.31;100.00;63471.25;5064535;28;20259;-76
2022/11/07 08:25:59;;;;;;;29.70;21.25;;;;;;;14.62;100.00;63503.44;5074990;28;20204;-74
2022/11/07 08:28:28;;;;;;;35.75;19.98;;;;;;;14.77;100.00;63529.28;5084806;28;20235;-75
2022/11/07 08:30:56;;;;;;;35.15;21.77;;;;;;;14.82;100.00;63524.72;5084985;28;20307;-75
2022/11/07 08:33:23;;;;;;;38.70;21.83;;;;;;;14.75;100.00;63520.00;5083832;28;20216;-74
2022/11/07 08:35:50;;;;;;;33.45;19.13;;;;;;;15.02;100.00;63550.66;5084280;28;20200;-75
2022/11/07 08:38:18;;;;;;;31.45;20.38;;;;;;;14.99;100.00;63542.41;5084652;28;20216;-76
2022/11/07 08:40:45;;;;;;;33.30;19.85;;;;;;;14.58;100.00;63501.84;5085114;28;20222;-75
2022/11/07 08:43:11;;;;;;;30.27;20.70;;;;;;;14.27;100.00;63470.16;5084508;28;20220;-76
2022/11/07 08:45:38;;;;;;;32.65;20.08;;;;;;;14.40;100.00;63483.69;5085236;28;20192;-77
2022/11/07 08:48:06;;;;;;;32.58;22.08;;;;;;;14.42;100.00;63488.31;5084490;28;20220;-77
2022/11/07 08:50:33;;;;;;;31.77;19.40;;;;;;;14.40;100.00;63480.59;5083951;28;20180;-75
2022/11/07 08:53:00;;;;;;;34.85;19.67;;;;;;;14.64;100.00;63506.03;5086836;28;20224;-76
2022/11/07 08:55:29;;;;;;;29.83;20.15;;;;;;;14.87;100.00;63532.50;5088313;28;20196;-75
2022/11/07 08:57:58;;;;;;;29.75;19.02;;;;;;;15.18;100.00;63561.09;5084681;28;20216;-76
2022/11/07 09:00:25;;;;;;;23.10;17.63;;;;;;;15.39;100.00;63582.91;5084184;28;20196;-76
2022/11/07 09:02:52;;;;;;;26.38;17.23;;;;;;;15.36;100.00;63582.88;5083996;28;20223;-77
2022/11/07 09:05:19;;;;;;;34.25;18.75;;;;;;;15.61;100.00;63608.38;5084384;28;20249;-77
2022/11/07 09:07:46;;;;;;;23.42;17.80;;;;;;;15.91;98.84;63634.44;5087672;28;20216;-76
2022/11/07 09:10:13;;;;;;;32.03;18.67;;;;;;;15.94;96.08;63645.25;5084049;28;20385;-76
2022/11/07 09:12:46;;;;;;;24.00;18.20;;;;;;;15.97;95.87;63650.94;5087768;28;20235;-77
2022/11/07 09:15:13;;;;;;;32.97;18.75;;;;;;;15.88;95.95;63636.44;5084797;28;20185;-76
2022/11/07 09:17:41;;;;;;;28.77;17.83;;;;;;;15.71;94.23;63621.34;5084071;28;20416;-77
2022/11/07 09:20:09;;;;;;;26.52;17.05;;;;;;;15.85;94.66;63639.00;5084450;28;20200;-75
2022/11/07 09:22:37;;;;;;;24.00;17.58;;;;;;;15.86;92.56;63634.88;5084202;28;20226;-76
2022/11/07 09:25:04;;;;;;;21.98;15.98;;;;;;;16.06;92.58;63655.69;5083403;28;20192;-77
2022/11/07 09:27:31;;;;;;;20.55;16.92;;;;;;;16.03;88.22;63652.56;5063633;28;20217;-76
2022/11/07 09:29:59;;;;;;;22.85;16.35;;;;;;;16.14;87.22;63664.00;5067382;28;20446;-76
2022/11/07 09:32:26;;;;;;;22.63;15.55;;;;;;;16.24;86.66;63675.94;5064352;28;20493;-75
2022/11/07 09:34:53;;;;;;;21.83;15.18;;;;;;;16.05;85.48;63651.53;5065200;28;20224;-75
2022/11/07 09:37:20;;;;;;;22.80;14.38;;;;;;;15.89;85.20;63637.50;5070955;28;20264;-76
2022/11/07 09:39:47;;;;;;;20.70;14.02;;;;;;;15.76;86.27;63624.50;5069196;28;20215;-76
2022/11/07 09:42:23;;;;;;;20.38;14.65;;;;;;;15.71;86.98;63613.63;5068367;28;20220;-76
2022/11/07 09:44:56;;;;;;;22.17;15.15;;;;;;;15.47;89.32;63599.47;5067282;28;20191;-77
2022/11/07 09:47:34;;;;;;;20.67;15.05;;;;;;;15.47;89.36;63602.03;5067319;28;20220;-76
2022/11/07 09:50:07;;;;;;;26.73;15.23;;;;;;;15.44;89.31;63593.78;5069578;28;20184;-75
2022/11/07 09:52:40;;;;;;;25.05;14.85;;;;;;;15.46;87.57;63590.72;5068193;28;20259;-75
2022/11/07 09:55:17;;;;;;;25.45;14.73;;;;;;;15.34;88.15;63577.72;5067965;28;20212;-76
2022/11/07 09:57:43;;;;;;;22.92;14.77;;;;;;;15.10;88.55;63558.44;5067579;28;20274;-76
2022/11/07 10:00:16;;;;;;;21.25;13.27;;;;;;;15.00;88.63;63545.47;5068704;28;20250;-76
2022/11/07 10:02:47;;;;;;;21.27;14.68;;;;;;;15.28;89.31;63579.72;5067226;28;20216;-76
2022/11/07 10:05:17;;;;;;;27.00;14.93;;;;;;;15.43;88.43;63590.19;5067627;28;20205;-77
2022/11/07 10:07:58;;;;;;;18.45;13.57;;;;;;;15.62;87.34;63609.94;5072942;28;20217;-76
2022/11/07 10:10:37;;;;;;;27.77;15.90;;;;;;;15.71;89.64;63619.28;5067180;28;20501;-79
2022/11/07 10:13:18;;;;;;;27.27;17.50;;;;;;;15.92;90.29;63641.13;5067235;28;20236;-76
2022/11/07 10:15:59;;;;;;;23.05;15.68;;;;;;;16.02;89.03;63651.53;5069194;28;20243;-77
2022/11/07 10:18:38;;;;;;;26.00;14.80;;;;;;;15.57;88.46;63606.78;5067425;28;20220;-77
2022/11/07 10:21:15;;;;;;;19.88;14.60;;;;;;;15.22;89.85;63573.47;5066479;28;20197;-76
2022/11/07 10:23:53;;;;;;;23.08;14.82;;;;;;;15.15;91.08;63561.06;5070073;28;20212;-76
2022/11/07 10:26:23;;;;;;;27.27;15.75;;;;;;;15.25;92.13;63574.03;5078830;28;20257;-75
2022/11/07 10:29:00;;;;;;;21.33;15.27;;;;;;;15.14;92.46;63560.03;5086565;28;20227;-75
2022/11/07 10:31:34;;;;;;;27.58;14.45;;;;;;;14.84;94.25;63529.38;5090475;28;20516;-76
2022/11/07 10:34:05;;;;;;;19.25;14.45;;;;;;;15.04;94.71;63550.16;5086619;28;20216;-76
2022/11/07 10:36:33;;;;;;;21.63;14.55;;;;;;;15.17;94.50;63563.13;5086841;28;20559;-76
2022/11/07 10:39:01;;;;;;;23.17;15.82;;;;;;;15.22;94.69;63568.31;5091078;28;20217;-77
2022/11/07 10:41:30;;;;;;;19.77;13.63;;;;;;;15.06;95.11;63549.66;5086202;28;20196;-76
2022/11/07 10:44:02;;;;;;;21.10;14.13;;;;;;;15.06;96.68;63544.53;5086949;28;20216;-76
2022/11/07 10:46:40;;;;;;;22.92;14.38;;;;;;;15.18;95.90;63563.66;5088884;28;20199;-76
2022/11/07 10:49:19;;;;;;;22.13;13.35;;;;;;;15.13;96.96;63559.00;5086454;28;20253;-76
2022/11/07 10:51:46;;;;;;;23.25;14.90;;;;;;;15.22;96.74;63578.09;5087476;28;20230;-76
2022/11/07 10:54:20;;;;;;;20.77;14.65;;;;;;;15.24;95.59;63570.41;5090036;28;20211;-76
2022/11/07 10:56:50;;;;;;;19.55;13.43;;;;;;;15.36;95.28;63584.94;5049810;28;20486;-76
2022/11/07 10:59:25;;;;;;;21.02;14.77;;;;;;;15.61;94.93;63608.91;5045875;28;20190;-76
2022/11/07 11:01:53;;;;;;;19.45;13.23;;;;;;;15.70;93.10;63618.25;5046224;28;20201;-76
2022/11/07 11:04:23;;;;;;;20.13;13.52;;;;;;;15.82;92.55;63635.34;5058669;28;20197;-77
2022/11/07 11:06:59;;;;;;;18.15;13.27;;;;;;;15.67;91.18;63614.63;5065357;28;20388;-76
2022/11/07 11:09:31;;;;;;;21.85;13.82;;;;;;;15.87;90.00;63632.84;5067726;28;20199;-77
2022/11/07 11:11:58;;;;;;;19.45;13.68;;;;;;;15.54;89.94;63606.75;5072893;28;20236;-78
2022/11/07 11:14:25;;;;;;;19.77;12.85;;;;;;;15.75;90.59;63623.47;5070278;28;20379;-76
2022/11/07 11:16:55;;;;;;;19.25;13.32;;;;;;;15.60;89.36;63612.97;5065676;28;20193;-77
2022/11/07 11:19:25;;;;;;;19.98;14.10;;;;;;;15.78;90.69;63629.13;5066459;28;20224;-77
2022/11/07 11:21:55;;;;;;;25.38;14.65;;;;;;;15.87;90.00;63632.84;5066517;28;20368;-77
2022/11/07 11:24:34;;;;;;;19.08;14.25;;;;;;;16.06;89.80;63655.69;5066883;28;20506;-77
2022/11/07 11:27:09;;;;;;;19.17;14.23;;;;;;;16.24;88.68;63673.38;5084357;28;20200;-76
2022/11/07 11:29:43;;;;;;;18.85;13.63;;;;;;;16.37;84.32;63686.88;5088657;28;20194;-76